sensor_id;sensor_type;location;lat;lon;timestamp;P1;durP1;ratioP1;P2;durP2;ratioP2
80425;SDS011;69766;51.476;5.704;2023-10-08T00:01:08;12.45;;;4.63;;
80425;SDS011;69766;51.476;5.704;2023-10-08T00:03:44;10.52;;;4.28;;
80425;SDS011;69766;51.476;5.704;2023-10-08T00:06:23;12.38;;;4.68;;
80425;SDS011;69766;51.476;5.704;2023-10-08T00:08:55;11.60;;;3.97;;
80425;SDS011;69766;51.476;5.704;2023-10-08T00:11:34;10.23;;;4.60;;
80425;SDS011;69766;51.476;5.704;2023-10-08T00:14:04;8.95;;;4.65;;
80425;SDS011;69766;51.476;5.704;2023-10-08T00:16:35;15.32;;;4.00;;
80425;SDS011;69766;51.476;5.704;2023-10-08T00:19:08;10.15;;;4.20;;
80425;SDS011;69766;51.476;5.704;2023-10-08T00:21:40;12.18;;;4.43;;
80425;SDS011;69766;51.476;5.704;2023-10-08T00:24:16;15.77;;;4.72;;
80425;SDS011;69766;51.476;5.704;2023-10-08T00:26:45;12.48;;;4.30;;
80425;SDS011;69766;51.476;5.704;2023-10-08T00:29:11;13.13;;;5.05;;
80425;SDS011;69766;51.476;5.704;2023-10-08T00:31:46;9.07;;;4.10;;
80425;SDS011;69766;51.476;5.704;2023-10-08T00:34:16;11.23;;;4.88;;
80425;SDS011;69766;51.476;5.704;2023-10-08T00:36:45;12.77;;;4.95;;
80425;SDS011;69766;51.476;5.704;2023-10-08T00:39:12;10.77;;;4.68;;
80425;SDS011;69766;51.476;5.704;2023-10-08T00:41:52;9.35;;;4.38;;
80425;SDS011;69766;51.476;5.704;2023-10-08T00:44:24;11.15;;;4.82;;
80425;SDS011;69766;51.476;5.704;2023-10-08T00:46:55;12.40;;;4.75;;
80425;SDS011;69766;51.476;5.704;2023-10-08T00:49:32;12.77;;;5.05;;
80425;SDS011;69766;51.476;5.704;2023-10-08T00:52:04;11.77;;;5.03;;
80425;SDS011;69766;51.476;5.704;2023-10-08T00:54:33;12.60;;;4.63;;
80425;SDS011;69766;51.476;5.704;2023-10-08T00:57:15;10.02;;;5.00;;
80425;SDS011;69766;51.476;5.704;2023-10-08T00:59:47;12.48;;;4.88;;
80425;SDS011;69766;51.476;5.704;2023-10-08T01:02:21;20.08;;;5.10;;
80425;SDS011;69766;51.476;5.704;2023-10-08T01:04:53;10.18;;;4.72;;
80425;SDS011;69766;51.476;5.704;2023-10-08T01:07:20;11.80;;;5.20;;
80425;SDS011;69766;51.476;5.704;2023-10-08T01:09:56;11.32;;;5.60;;
80425;SDS011;69766;51.476;5.704;2023-10-08T01:12:24;8.88;;;4.30;;
80425;SDS011;69766;51.476;5.704;2023-10-08T01:15:00;13.60;;;5.20;;
80425;SDS011;69766;51.476;5.704;2023-10-08T01:17:41;10.20;;;4.65;;
80425;SDS011;69766;51.476;5.704;2023-10-08T01:20:31;15.68;;;5.13;;
80425;SDS011;69766;51.476;5.704;2023-10-08T01:23:12;11.85;;;5.15;;
80425;SDS011;69766;51.476;5.704;2023-10-08T01:26:04;12.13;;;4.82;;
80425;SDS011;69766;51.476;5.704;2023-10-08T01:28:36;10.32;;;4.60;;
80425;SDS011;69766;51.476;5.704;2023-10-08T01:31:09;11.45;;;4.60;;
80425;SDS011;69766;51.476;5.704;2023-10-08T01:33:40;10.27;;;4.60;;
80425;SDS011;69766;51.476;5.704;2023-10-08T01:36:21;13.38;;;4.65;;
80425;SDS011;69766;51.476;5.704;2023-10-08T01:38:53;12.77;;;4.90;;
80425;SDS011;69766;51.476;5.704;2023-10-08T01:41:25;10.15;;;4.65;;
80425;SDS011;69766;51.476;5.704;2023-10-08T01:43:55;10.88;;;4.80;;
80425;SDS011;69766;51.476;5.704;2023-10-08T01:46:24;10.80;;;4.30;;
80425;SDS011;69766;51.476;5.704;2023-10-08T01:48:59;12.15;;;5.55;;
80425;SDS011;69766;51.476;5.704;2023-10-08T01:51:30;14.02;;;5.40;;
80425;SDS011;69766;51.476;5.704;2023-10-08T01:54:03;15.05;;;4.80;;
80425;SDS011;69766;51.476;5.704;2023-10-08T01:56:39;12.75;;;5.15;;
80425;SDS011;69766;51.476;5.704;2023-10-08T01:59:09;13.23;;;5.22;;
80425;SDS011;69766;51.476;5.704;2023-10-08T02:01:43;10.65;;;4.95;;
80425;SDS011;69766;51.476;5.704;2023-10-08T02:04:12;14.90;;;4.60;;
80425;SDS011;69766;51.476;5.704;2023-10-08T02:06:41;11.52;;;4.45;;
80425;SDS011;69766;51.476;5.704;2023-10-08T02:09:16;12.48;;;4.70;;
80425;SDS011;69766;51.476;5.704;2023-10-08T02:11:51;10.57;;;4.68;;
80425;SDS011;69766;51.476;5.704;2023-10-08T02:14:24;10.63;;;4.65;;
80425;SDS011;69766;51.476;5.704;2023-10-08T02:16:50;12.70;;;4.85;;
80425;SDS011;69766;51.476;5.704;2023-10-08T02:21:56;12.75;;;5.35;;
80425;SDS011;69766;51.476;5.704;2023-10-08T02:24:23;9.50;;;3.97;;
80425;SDS011;69766;51.476;5.704;2023-10-08T02:26:52;11.38;;;4.20;;
80425;SDS011;69766;51.476;5.704;2023-10-08T02:29:20;11.90;;;4.63;;
80425;SDS011;69766;51.476;5.704;2023-10-08T02:31:55;11.68;;;4.53;;
80425;SDS011;69766;51.476;5.704;2023-10-08T02:34:22;12.07;;;4.72;;
80425;SDS011;69766;51.476;5.704;2023-10-08T02:36:50;12.10;;;5.32;;
80425;SDS011;69766;51.476;5.704;2023-10-08T02:39:24;10.23;;;4.68;;
80425;SDS011;69766;51.476;5.704;2023-10-08T02:42:01;14.13;;;5.15;;
80425;SDS011;69766;51.476;5.704;2023-10-08T02:44:35;12.15;;;4.53;;
80425;SDS011;69766;51.476;5.704;2023-10-08T02:47:07;10.93;;;4.47;;
80425;SDS011;69766;51.476;5.704;2023-10-08T02:49:49;10.90;;;3.75;;
80425;SDS011;69766;51.476;5.704;2023-10-08T02:52:18;9.57;;;4.28;;
80425;SDS011;69766;51.476;5.704;2023-10-08T02:54:49;16.55;;;4.75;;
80425;SDS011;69766;51.476;5.704;2023-10-08T02:57:17;11.45;;;4.90;;
80425;SDS011;69766;51.476;5.704;2023-10-08T02:59:46;10.95;;;5.28;;
80425;SDS011;69766;51.476;5.704;2023-10-08T03:02:13;10.52;;;4.38;;
80425;SDS011;69766;51.476;5.704;2023-10-08T03:04:44;14.10;;;4.93;;
80425;SDS011;69766;51.476;5.704;2023-10-08T03:07:13;12.82;;;4.50;;
80425;SDS011;69766;51.476;5.704;2023-10-08T03:09:50;10.95;;;4.90;;
80425;SDS011;69766;51.476;5.704;2023-10-08T03:12:28;11.27;;;4.68;;
80425;SDS011;69766;51.476;5.704;2023-10-08T03:15:00;11.05;;;4.72;;
80425;SDS011;69766;51.476;5.704;2023-10-08T03:17:37;10.60;;;4.80;;
80425;SDS011;69766;51.476;5.704;2023-10-08T03:20:29;14.07;;;4.95;;
80425;SDS011;69766;51.476;5.704;2023-10-08T03:23:28;11.05;;;4.55;;
80425;SDS011;69766;51.476;5.704;2023-10-08T03:26:02;9.93;;;4.03;;
80425;SDS011;69766;51.476;5.704;2023-10-08T03:28:36;8.27;;;4.32;;
80425;SDS011;69766;51.476;5.704;2023-10-08T03:31:03;10.95;;;4.70;;
80425;SDS011;69766;51.476;5.704;2023-10-08T03:33:35;12.40;;;4.50;;
80425;SDS011;69766;51.476;5.704;2023-10-08T03:36:04;12.10;;;4.50;;
80425;SDS011;69766;51.476;5.704;2023-10-08T03:38:36;11.07;;;4.75;;
80425;SDS011;69766;51.476;5.704;2023-10-08T03:41:18;11.20;;;4.88;;
80425;SDS011;69766;51.476;5.704;2023-10-08T03:43:55;13.95;;;3.92;;
80425;SDS011;69766;51.476;5.704;2023-10-08T03:46:30;17.38;;;4.47;;
80425;SDS011;69766;51.476;5.704;2023-10-08T03:49:05;10.93;;;4.43;;
80425;SDS011;69766;51.476;5.704;2023-10-08T03:51:54;16.92;;;4.78;;
80425;SDS011;69766;51.476;5.704;2023-10-08T03:54:22;10.73;;;4.20;;
80425;SDS011;69766;51.476;5.704;2023-10-08T03:56:59;9.65;;;3.97;;
80425;SDS011;69766;51.476;5.704;2023-10-08T03:59:38;10.35;;;4.35;;
80425;SDS011;69766;51.476;5.704;2023-10-08T04:02:06;10.13;;;4.05;;
80425;SDS011;69766;51.476;5.704;2023-10-08T04:04:42;11.43;;;3.95;;
80425;SDS011;69766;51.476;5.704;2023-10-08T04:07:24;11.32;;;5.05;;
80425;SDS011;69766;51.476;5.704;2023-10-08T04:09:59;10.23;;;4.15;;
80425;SDS011;69766;51.476;5.704;2023-10-08T04:12:35;11.23;;;4.85;;
80425;SDS011;69766;51.476;5.704;2023-10-08T04:15:09;11.98;;;4.45;;
80425;SDS011;69766;51.476;5.704;2023-10-08T04:20:19;12.10;;;4.20;;
80425;SDS011;69766;51.476;5.704;2023-10-08T04:23:03;11.57;;;4.82;;
80425;SDS011;69766;51.476;5.704;2023-10-08T04:25:48;14.50;;;4.70;;
80425;SDS011;69766;51.476;5.704;2023-10-08T04:30:51;9.98;;;4.45;;
80425;SDS011;69766;51.476;5.704;2023-10-08T04:33:39;9.73;;;3.90;;
80425;SDS011;69766;51.476;5.704;2023-10-08T04:36:06;12.50;;;4.55;;
80425;SDS011;69766;51.476;5.704;2023-10-08T04:38:32;8.98;;;4.13;;
80425;SDS011;69766;51.476;5.704;2023-10-08T04:41:04;9.95;;;4.25;;
80425;SDS011;69766;51.476;5.704;2023-10-08T04:43:40;11.50;;;4.57;;
80425;SDS011;69766;51.476;5.704;2023-10-08T04:46:08;10.30;;;4.47;;
80425;SDS011;69766;51.476;5.704;2023-10-08T04:48:55;11.15;;;4.60;;
80425;SDS011;69766;51.476;5.704;2023-10-08T04:51:26;13.75;;;4.78;;
80425;SDS011;69766;51.476;5.704;2023-10-08T04:53:59;10.25;;;4.55;;
80425;SDS011;69766;51.476;5.704;2023-10-08T04:56:30;13.10;;;4.88;;
80425;SDS011;69766;51.476;5.704;2023-10-08T04:59:00;11.18;;;4.57;;
80425;SDS011;69766;51.476;5.704;2023-10-08T05:01:30;11.73;;;5.00;;
80425;SDS011;69766;51.476;5.704;2023-10-08T05:04:34;11.15;;;4.45;;
80425;SDS011;69766;51.476;5.704;2023-10-08T05:07:19;10.77;;;4.78;;
80425;SDS011;69766;51.476;5.704;2023-10-08T05:10:03;10.98;;;4.00;;
80425;SDS011;69766;51.476;5.704;2023-10-08T05:12:59;9.88;;;4.00;;
80425;SDS011;69766;51.476;5.704;2023-10-08T05:15:37;11.77;;;4.82;;
80425;SDS011;69766;51.476;5.704;2023-10-08T05:18:25;10.32;;;4.47;;
80425;SDS011;69766;51.476;5.704;2023-10-08T05:21:14;11.75;;;4.53;;
80425;SDS011;69766;51.476;5.704;2023-10-08T05:24:00;11.10;;;4.65;;
80425;SDS011;69766;51.476;5.704;2023-10-08T05:26:38;16.00;;;6.25;;
80425;SDS011;69766;51.476;5.704;2023-10-08T05:29:12;12.13;;;5.32;;
80425;SDS011;69766;51.476;5.704;2023-10-08T05:32:00;10.70;;;4.35;;
80425;SDS011;69766;51.476;5.704;2023-10-08T05:34:46;16.55;;;5.50;;
80425;SDS011;69766;51.476;5.704;2023-10-08T05:37:40;9.65;;;4.63;;
80425;SDS011;69766;51.476;5.704;2023-10-08T05:40:10;12.90;;;4.78;;
80425;SDS011;69766;51.476;5.704;2023-10-08T05:42:56;13.90;;;4.53;;
80425;SDS011;69766;51.476;5.704;2023-10-08T05:47:56;15.40;;;5.30;;
80425;SDS011;69766;51.476;5.704;2023-10-08T05:50:40;10.88;;;5.30;;
80425;SDS011;69766;51.476;5.704;2023-10-08T05:53:20;9.32;;;4.85;;
80425;SDS011;69766;51.476;5.704;2023-10-08T05:56:06;13.75;;;5.13;;
80425;SDS011;69766;51.476;5.704;2023-10-08T05:58:52;9.93;;;4.88;;
80425;SDS011;69766;51.476;5.704;2023-10-08T06:01:36;13.18;;;5.18;;
80425;SDS011;69766;51.476;5.704;2023-10-08T06:04:06;10.98;;;4.63;;
80425;SDS011;69766;51.476;5.704;2023-10-08T06:07:10;16.20;;;5.72;;
80425;SDS011;69766;51.476;5.704;2023-10-08T06:09:49;15.45;;;5.53;;
80425;SDS011;69766;51.476;5.704;2023-10-08T06:12:27;11.50;;;5.38;;
80425;SDS011;69766;51.476;5.704;2023-10-08T06:15:04;14.90;;;5.28;;
80425;SDS011;69766;51.476;5.704;2023-10-08T06:17:37;11.43;;;5.75;;
80425;SDS011;69766;51.476;5.704;2023-10-08T06:20:29;13.73;;;5.97;;
80425;SDS011;69766;51.476;5.704;2023-10-08T06:22:55;13.88;;;5.65;;
80425;SDS011;69766;51.476;5.704;2023-10-08T06:25:28;12.75;;;5.00;;
80425;SDS011;69766;51.476;5.704;2023-10-08T06:28:12;14.95;;;6.05;;
80425;SDS011;69766;51.476;5.704;2023-10-08T06:30:48;16.85;;;6.15;;
80425;SDS011;69766;51.476;5.704;2023-10-08T06:33:18;12.18;;;5.65;;
80425;SDS011;69766;51.476;5.704;2023-10-08T06:35:45;12.32;;;5.43;;
80425;SDS011;69766;51.476;5.704;2023-10-08T06:38:33;15.60;;;5.45;;
80425;SDS011;69766;51.476;5.704;2023-10-08T06:41:03;16.25;;;5.70;;
80425;SDS011;69766;51.476;5.704;2023-10-08T06:43:41;12.90;;;4.85;;
80425;SDS011;69766;51.476;5.704;2023-10-08T06:46:37;13.23;;;5.20;;
80425;SDS011;69766;51.476;5.704;2023-10-08T06:49:06;12.15;;;5.28;;
80425;SDS011;69766;51.476;5.704;2023-10-08T06:51:43;11.90;;;4.95;;
80425;SDS011;69766;51.476;5.704;2023-10-08T06:54:09;12.93;;;5.30;;
80425;SDS011;69766;51.476;5.704;2023-10-08T06:56:41;13.82;;;5.90;;
80425;SDS011;69766;51.476;5.704;2023-10-08T06:59:16;12.10;;;5.82;;
80425;SDS011;69766;51.476;5.704;2023-10-08T07:01:43;14.65;;;5.20;;
80425;SDS011;69766;51.476;5.704;2023-10-08T07:04:12;13.85;;;5.90;;
80425;SDS011;69766;51.476;5.704;2023-10-08T07:06:39;11.10;;;5.28;;
80425;SDS011;69766;51.476;5.704;2023-10-08T07:09:09;12.43;;;5.22;;
80425;SDS011;69766;51.476;5.704;2023-10-08T07:11:59;12.02;;;5.78;;
80425;SDS011;69766;51.476;5.704;2023-10-08T07:14:41;13.20;;;6.03;;
80425;SDS011;69766;51.476;5.704;2023-10-08T07:17:11;13.32;;;5.60;;
80425;SDS011;69766;51.476;5.704;2023-10-08T07:19:44;15.98;;;5.85;;
80425;SDS011;69766;51.476;5.704;2023-10-08T07:22:15;13.20;;;5.85;;
80425;SDS011;69766;51.476;5.704;2023-10-08T07:24:47;14.07;;;5.93;;
80425;SDS011;69766;51.476;5.704;2023-10-08T07:27:22;14.23;;;5.55;;
80425;SDS011;69766;51.476;5.704;2023-10-08T07:29:57;15.98;;;5.47;;
80425;SDS011;69766;51.476;5.704;2023-10-08T07:32:26;14.25;;;5.95;;
80425;SDS011;69766;51.476;5.704;2023-10-08T07:34:52;18.95;;;7.22;;
80425;SDS011;69766;51.476;5.704;2023-10-08T07:37:23;15.02;;;6.05;;
80425;SDS011;69766;51.476;5.704;2023-10-08T07:39:51;19.65;;;6.45;;
80425;SDS011;69766;51.476;5.704;2023-10-08T07:42:20;16.73;;;6.85;;
80425;SDS011;69766;51.476;5.704;2023-10-08T07:44:48;12.63;;;6.35;;
80425;SDS011;69766;51.476;5.704;2023-10-08T07:47:20;17.20;;;6.57;;
80425;SDS011;69766;51.476;5.704;2023-10-08T07:49:46;15.32;;;6.10;;
80425;SDS011;69766;51.476;5.704;2023-10-08T07:52:17;14.70;;;6.28;;
80425;SDS011;69766;51.476;5.704;2023-10-08T07:54:42;15.98;;;6.15;;
80425;SDS011;69766;51.476;5.704;2023-10-08T07:57:08;15.55;;;5.72;;
80425;SDS011;69766;51.476;5.704;2023-10-08T07:59:38;15.70;;;6.03;;
80425;SDS011;69766;51.476;5.704;2023-10-08T08:02:09;14.75;;;6.50;;
80425;SDS011;69766;51.476;5.704;2023-10-08T08:04:37;13.93;;;6.45;;
80425;SDS011;69766;51.476;5.704;2023-10-08T08:07:05;18.55;;;7.32;;
80425;SDS011;69766;51.476;5.704;2023-10-08T08:09:34;16.98;;;6.85;;
80425;SDS011;69766;51.476;5.704;2023-10-08T08:12:28;18.67;;;7.70;;
80425;SDS011;69766;51.476;5.704;2023-10-08T08:14:58;23.65;;;8.73;;
80425;SDS011;69766;51.476;5.704;2023-10-08T08:17:26;19.90;;;8.48;;
80425;SDS011;69766;51.476;5.704;2023-10-08T08:20:00;16.90;;;8.20;;
80425;SDS011;69766;51.476;5.704;2023-10-08T08:22:42;19.23;;;8.27;;
80425;SDS011;69766;51.476;5.704;2023-10-08T08:25:15;15.57;;;7.88;;
80425;SDS011;69766;51.476;5.704;2023-10-08T08:27:51;21.88;;;9.25;;
80425;SDS011;69766;51.476;5.704;2023-10-08T08:30:20;20.60;;;8.60;;
80425;SDS011;69766;51.476;5.704;2023-10-08T08:32:51;19.50;;;8.43;;
80425;SDS011;69766;51.476;5.704;2023-10-08T08:35:17;18.50;;;8.55;;
80425;SDS011;69766;51.476;5.704;2023-10-08T08:37:46;20.55;;;9.75;;
80425;SDS011;69766;51.476;5.704;2023-10-08T08:40:17;20.75;;;9.90;;
80425;SDS011;69766;51.476;5.704;2023-10-08T08:42:50;25.08;;;11.30;;
80425;SDS011;69766;51.476;5.704;2023-10-08T08:45:24;23.00;;;11.30;;
80425;SDS011;69766;51.476;5.704;2023-10-08T08:47:49;27.05;;;11.93;;
80425;SDS011;69766;51.476;5.704;2023-10-08T08:50:17;27.48;;;11.13;;
80425;SDS011;69766;51.476;5.704;2023-10-08T08:52:44;28.58;;;11.23;;
80425;SDS011;69766;51.476;5.704;2023-10-08T08:55:15;24.98;;;10.85;;
80425;SDS011;69766;51.476;5.704;2023-10-08T08:57:49;23.15;;;11.25;;
80425;SDS011;69766;51.476;5.704;2023-10-08T09:00:21;22.00;;;11.32;;
80425;SDS011;69766;51.476;5.704;2023-10-08T09:02:53;24.30;;;11.75;;
80425;SDS011;69766;51.476;5.704;2023-10-08T09:05:19;26.50;;;12.45;;
80425;SDS011;69766;51.476;5.704;2023-10-08T09:10:48;32.00;;;11.98;;
80425;SDS011;69766;51.476;5.704;2023-10-08T09:13:18;30.58;;;13.18;;
80425;SDS011;69766;51.476;5.704;2023-10-08T09:15:51;26.33;;;12.48;;
80425;SDS011;69766;51.476;5.704;2023-10-08T09:18:17;29.42;;;14.25;;
80425;SDS011;69766;51.476;5.704;2023-10-08T09:20:46;28.23;;;14.18;;
80425;SDS011;69766;51.476;5.704;2023-10-08T09:23:16;35.78;;;15.07;;
80425;SDS011;69766;51.476;5.704;2023-10-08T09:28:10;26.77;;;14.45;;
80425;SDS011;69766;51.476;5.704;2023-10-08T09:30:39;31.13;;;16.35;;
80425;SDS011;69766;51.476;5.704;2023-10-08T09:33:06;39.13;;;16.23;;
80425;SDS011;69766;51.476;5.704;2023-10-08T09:35:38;31.27;;;15.38;;
80425;SDS011;69766;51.476;5.704;2023-10-08T09:38:10;30.30;;;15.68;;
80425;SDS011;69766;51.476;5.704;2023-10-08T09:40:40;36.28;;;15.77;;
80425;SDS011;69766;51.476;5.704;2023-10-08T09:43:08;32.03;;;14.35;;
80425;SDS011;69766;51.476;5.704;2023-10-08T09:45:36;24.38;;;13.35;;
80425;SDS011;69766;51.476;5.704;2023-10-08T09:48:07;36.80;;;14.10;;
80425;SDS011;69766;51.476;5.704;2023-10-08T09:50:40;29.80;;;13.05;;
80425;SDS011;69766;51.476;5.704;2023-10-08T09:53:18;28.13;;;13.45;;
80425;SDS011;69766;51.476;5.704;2023-10-08T09:55:56;24.98;;;12.95;;
80425;SDS011;69766;51.476;5.704;2023-10-08T09:58:22;28.33;;;12.85;;
80425;SDS011;69766;51.476;5.704;2023-10-08T10:00:50;28.10;;;13.23;;
80425;SDS011;69766;51.476;5.704;2023-10-08T10:03:18;26.13;;;12.45;;
80425;SDS011;69766;51.476;5.704;2023-10-08T10:05:49;29.80;;;13.23;;
80425;SDS011;69766;51.476;5.704;2023-10-08T10:08:15;25.27;;;12.45;;
80425;SDS011;69766;51.476;5.704;2023-10-08T10:10:47;25.08;;;12.25;;
80425;SDS011;69766;51.476;5.704;2023-10-08T10:13:27;24.83;;;10.82;;
80425;SDS011;69766;51.476;5.704;2023-10-08T10:23:38;25.75;;;11.65;;
80425;SDS011;69766;51.476;5.704;2023-10-08T10:31:45;21.80;;;10.82;;
80425;SDS011;69766;51.476;5.704;2023-10-08T10:34:19;23.33;;;11.02;;
80425;SDS011;69766;51.476;5.704;2023-10-08T10:36:48;26.83;;;11.07;;
80425;SDS011;69766;51.476;5.704;2023-10-08T10:39:21;20.88;;;9.98;;
80425;SDS011;69766;51.476;5.704;2023-10-08T10:41:59;23.15;;;10.23;;
80425;SDS011;69766;51.476;5.704;2023-10-08T10:44:31;19.85;;;10.07;;
80425;SDS011;69766;51.476;5.704;2023-10-08T10:46:57;20.33;;;10.50;;
80425;SDS011;69766;51.476;5.704;2023-10-08T10:49:46;23.70;;;10.77;;
80425;SDS011;69766;51.476;5.704;2023-10-08T10:52:16;24.90;;;11.20;;
80425;SDS011;69766;51.476;5.704;2023-10-08T10:55:09;21.52;;;10.65;;
80425;SDS011;69766;51.476;5.704;2023-10-08T10:57:47;21.55;;;10.63;;
80425;SDS011;69766;51.476;5.704;2023-10-08T11:00:36;21.98;;;11.52;;
80425;SDS011;69766;51.476;5.704;2023-10-08T11:03:03;22.73;;;10.82;;
80425;SDS011;69766;51.476;5.704;2023-10-08T11:05:41;21.90;;;10.70;;
80425;SDS011;69766;51.476;5.704;2023-10-08T11:08:13;23.52;;;10.98;;
80425;SDS011;69766;51.476;5.704;2023-10-08T11:10:41;25.33;;;11.73;;
80425;SDS011;69766;51.476;5.704;2023-10-08T11:13:21;23.38;;;11.27;;
80425;SDS011;69766;51.476;5.704;2023-10-08T11:15:53;23.27;;;10.93;;
80425;SDS011;69766;51.476;5.704;2023-10-08T11:18:20;19.85;;;10.75;;
80425;SDS011;69766;51.476;5.704;2023-10-08T11:20:48;21.92;;;10.18;;
80425;SDS011;69766;51.476;5.704;2023-10-08T11:23:34;21.58;;;10.32;;
80425;SDS011;69766;51.476;5.704;2023-10-08T11:26:06;24.15;;;10.90;;
80425;SDS011;69766;51.476;5.704;2023-10-08T11:28:33;21.88;;;9.70;;
80425;SDS011;69766;51.476;5.704;2023-10-08T11:31:01;19.85;;;10.02;;
80425;SDS011;69766;51.476;5.704;2023-10-08T11:33:36;19.83;;;10.05;;
80425;SDS011;69766;51.476;5.704;2023-10-08T11:36:04;23.35;;;11.07;;
80425;SDS011;69766;51.476;5.704;2023-10-08T11:39:08;22.48;;;10.07;;
80425;SDS011;69766;51.476;5.704;2023-10-08T11:41:36;28.52;;;11.65;;
80425;SDS011;69766;51.476;5.704;2023-10-08T11:44:15;18.02;;;10.77;;
80425;SDS011;69766;51.476;5.704;2023-10-08T11:46:45;18.58;;;10.55;;
80425;SDS011;69766;51.476;5.704;2023-10-08T11:49:11;17.30;;;9.80;;
80425;SDS011;69766;51.476;5.704;2023-10-08T11:51:43;24.30;;;10.25;;
80425;SDS011;69766;51.476;5.704;2023-10-08T11:54:12;20.33;;;11.02;;
80425;SDS011;69766;51.476;5.704;2023-10-08T11:56:41;18.60;;;10.75;;
80425;SDS011;69766;51.476;5.704;2023-10-08T11:59:07;19.83;;;9.65;;
80425;SDS011;69766;51.476;5.704;2023-10-08T12:01:38;19.45;;;10.80;;
80425;SDS011;69766;51.476;5.704;2023-10-08T12:04:08;20.50;;;12.15;;
80425;SDS011;69766;51.476;5.704;2023-10-08T12:06:45;19.73;;;11.40;;
80425;SDS011;69766;51.476;5.704;2023-10-08T12:09:17;22.13;;;11.00;;
80425;SDS011;69766;51.476;5.704;2023-10-08T12:11:47;23.38;;;11.20;;
80425;SDS011;69766;51.476;5.704;2023-10-08T12:14:13;25.10;;;11.07;;
80425;SDS011;69766;51.476;5.704;2023-10-08T12:16:39;22.15;;;11.25;;
80425;SDS011;69766;51.476;5.704;2023-10-08T12:19:06;24.42;;;11.20;;
80425;SDS011;69766;51.476;5.704;2023-10-08T12:21:41;28.48;;;11.45;;
80425;SDS011;69766;51.476;5.704;2023-10-08T12:24:11;23.80;;;11.88;;
80425;SDS011;69766;51.476;5.704;2023-10-08T12:26:37;22.95;;;12.60;;
80425;SDS011;69766;51.476;5.704;2023-10-08T12:29:11;21.58;;;12.38;;
80425;SDS011;69766;51.476;5.704;2023-10-08T12:31:39;23.75;;;11.68;;
80425;SDS011;69766;51.476;5.704;2023-10-08T12:34:07;24.60;;;12.23;;
80425;SDS011;69766;51.476;5.704;2023-10-08T12:36:37;25.98;;;12.35;;
80425;SDS011;69766;51.476;5.704;2023-10-08T12:39:03;35.03;;;14.10;;
80425;SDS011;69766;51.476;5.704;2023-10-08T12:41:36;24.20;;;12.23;;
80425;SDS011;69766;51.476;5.704;2023-10-08T12:44:03;28.08;;;12.80;;
80425;SDS011;69766;51.476;5.704;2023-10-08T12:46:33;31.38;;;11.98;;
80425;SDS011;69766;51.476;5.704;2023-10-08T12:48:59;27.55;;;12.00;;
80425;SDS011;69766;51.476;5.704;2023-10-08T12:51:26;27.38;;;11.90;;
80425;SDS011;69766;51.476;5.704;2023-10-08T12:53:57;24.23;;;11.93;;
80425;SDS011;69766;51.476;5.704;2023-10-08T12:56:24;21.08;;;11.30;;
80425;SDS011;69766;51.476;5.704;2023-10-08T12:58:59;28.13;;;11.75;;
80425;SDS011;69766;51.476;5.704;2023-10-08T13:01:29;22.55;;;10.98;;
80425;SDS011;69766;51.476;5.704;2023-10-08T13:03:58;28.55;;;12.18;;
80425;SDS011;69766;51.476;5.704;2023-10-08T13:06:32;29.55;;;11.38;;
80425;SDS011;69766;51.476;5.704;2023-10-08T13:09:02;23.15;;;11.27;;
80425;SDS011;69766;51.476;5.704;2023-10-08T13:11:37;22.77;;;10.60;;
80425;SDS011;69766;51.476;5.704;2023-10-08T13:14:04;25.83;;;9.75;;
80425;SDS011;69766;51.476;5.704;2023-10-08T13:16:33;24.50;;;10.82;;
80425;SDS011;69766;51.476;5.704;2023-10-08T13:19:02;24.73;;;10.93;;
80425;SDS011;69766;51.476;5.704;2023-10-08T13:21:32;23.15;;;10.68;;
80425;SDS011;69766;51.476;5.704;2023-10-08T13:24:01;21.23;;;10.88;;
80425;SDS011;69766;51.476;5.704;2023-10-08T13:26:28;29.10;;;13.43;;
80425;SDS011;69766;51.476;5.704;2023-10-08T13:28:57;18.83;;;11.10;;
80425;SDS011;69766;51.476;5.704;2023-10-08T13:31:24;27.08;;;12.07;;
80425;SDS011;69766;51.476;5.704;2023-10-08T13:33:50;26.13;;;11.90;;
80425;SDS011;69766;51.476;5.704;2023-10-08T13:36:17;27.23;;;13.07;;
80425;SDS011;69766;51.476;5.704;2023-10-08T13:38:43;21.90;;;11.48;;
80425;SDS011;69766;51.476;5.704;2023-10-08T13:41:16;24.00;;;11.13;;
80425;SDS011;69766;51.476;5.704;2023-10-08T13:43:49;20.90;;;10.07;;
80425;SDS011;69766;51.476;5.704;2023-10-08T13:46:24;25.10;;;12.30;;
80425;SDS011;69766;51.476;5.704;2023-10-08T13:48:57;22.60;;;11.40;;
80425;SDS011;69766;51.476;5.704;2023-10-08T13:51:26;24.45;;;12.05;;
80425;SDS011;69766;51.476;5.704;2023-10-08T13:53:58;27.38;;;13.13;;
80425;SDS011;69766;51.476;5.704;2023-10-08T13:56:28;24.30;;;11.70;;
80425;SDS011;69766;51.476;5.704;2023-10-08T13:58:57;28.75;;;12.82;;
80425;SDS011;69766;51.476;5.704;2023-10-08T14:01:40;28.55;;;12.77;;
80425;SDS011;69766;51.476;5.704;2023-10-08T14:04:16;21.30;;;12.10;;
80425;SDS011;69766;51.476;5.704;2023-10-08T14:06:45;26.48;;;12.27;;
80425;SDS011;69766;51.476;5.704;2023-10-08T14:09:22;27.08;;;14.10;;
80425;SDS011;69766;51.476;5.704;2023-10-08T14:12:04;26.90;;;12.80;;
80425;SDS011;69766;51.476;5.704;2023-10-08T14:14:32;21.17;;;12.02;;
80425;SDS011;69766;51.476;5.704;2023-10-08T14:17:00;25.75;;;12.38;;
80425;SDS011;69766;51.476;5.704;2023-10-08T14:19:31;27.20;;;13.18;;
80425;SDS011;69766;51.476;5.704;2023-10-08T14:22:16;32.22;;;14.13;;
80425;SDS011;69766;51.476;5.704;2023-10-08T14:24:47;27.67;;;13.60;;
80425;SDS011;69766;51.476;5.704;2023-10-08T14:27:24;29.67;;;14.43;;
80425;SDS011;69766;51.476;5.704;2023-10-08T14:30:05;27.48;;;13.35;;
80425;SDS011;69766;51.476;5.704;2023-10-08T14:32:36;29.45;;;14.52;;
80425;SDS011;69766;51.476;5.704;2023-10-08T14:35:02;27.70;;;14.05;;
80425;SDS011;69766;51.476;5.704;2023-10-08T14:37:47;29.00;;;13.55;;
80425;SDS011;69766;51.476;5.704;2023-10-08T14:40:31;30.98;;;14.88;;
80425;SDS011;69766;51.476;5.704;2023-10-08T14:43:15;28.63;;;13.35;;
80425;SDS011;69766;51.476;5.704;2023-10-08T14:45:45;29.88;;;14.63;;
80425;SDS011;69766;51.476;5.704;2023-10-08T14:48:15;32.20;;;14.70;;
80425;SDS011;69766;51.476;5.704;2023-10-08T14:50:41;32.63;;;15.15;;
80425;SDS011;69766;51.476;5.704;2023-10-08T14:53:07;26.55;;;14.50;;
80425;SDS011;69766;51.476;5.704;2023-10-08T14:55:34;29.50;;;15.35;;
80425;SDS011;69766;51.476;5.704;2023-10-08T14:58:01;30.67;;;15.38;;
80425;SDS011;69766;51.476;5.704;2023-10-08T15:00:35;29.48;;;15.18;;
80425;SDS011;69766;51.476;5.704;2023-10-08T15:03:01;29.35;;;14.18;;
80425;SDS011;69766;51.476;5.704;2023-10-08T15:05:28;31.55;;;14.57;;
80425;SDS011;69766;51.476;5.704;2023-10-08T15:07:55;26.42;;;15.10;;
80425;SDS011;69766;51.476;5.704;2023-10-08T15:10:21;30.42;;;14.63;;
80425;SDS011;69766;51.476;5.704;2023-10-08T15:12:47;31.17;;;15.23;;
80425;SDS011;69766;51.476;5.704;2023-10-08T15:15:14;33.38;;;15.80;;
80425;SDS011;69766;51.476;5.704;2023-10-08T15:17:40;29.55;;;16.25;;
80425;SDS011;69766;51.476;5.704;2023-10-08T15:20:10;30.13;;;15.82;;
80425;SDS011;69766;51.476;5.704;2023-10-08T15:22:42;32.50;;;16.10;;
80425;SDS011;69766;51.476;5.704;2023-10-08T15:25:15;33.08;;;16.70;;
80425;SDS011;69766;51.476;5.704;2023-10-08T15:27:42;32.35;;;15.73;;
80425;SDS011;69766;51.476;5.704;2023-10-08T15:30:16;35.88;;;16.17;;
80425;SDS011;69766;51.476;5.704;2023-10-08T15:32:46;34.58;;;16.23;;